Time;durP1;ratioP1;P1;durP2;ratioP2;P2;SDS_P1;SDS_P2;PMS_P1;PMS_P2;Temp;Humidity;BMP_temperature;BMP_pressure;BME280_temperature;BME280_humidity;BME280_pressure;Samples;Min_cycle;Max_cycle;Signal;HPM_P1;HPM_P2
2023/01/01 00:01:00;;;;;;;;;;;;;;;5.14;73.23;98965.06;5111267;27;2192;-82
2023/01/01 00:03:27;;;;;;;;;;;;;;;5.05;73.33;98964.53;5112628;27;2130;-82
2023/01/01 00:05:54;;;;;;;;;;;;;;;5.09;73.15;98970.25;5095573;27;2168;-81
2023/01/01 00:08:21;;;;;;;;;;;;;;;5.10;73.38;98971.91;5108521;27;2266;-83
2023/01/01 00:10:47;;;;;;;;;;;;;;;5.15;73.10;98972.88;5111533;27;2663;-80
2023/01/01 00:13:14;;;;;;;;;;;;;;;5.25;72.49;98980.34;5112992;27;2218;-83
2023/01/01 00:15:41;;;;;;;;;;;;;;;5.29;72.48;98986.84;5122733;27;2240;-81
2023/01/01 00:18:07;;;;;;;;;;;;;;;5.30;72.53;98988.50;5117412;27;2231;-81
2023/01/01 00:20:34;;;;;;;;;;;;;;;5.23;72.72;98985.91;5115338;27;2113;-83
2023/01/01 00:23:00;;;;;;;;;;;;;;;5.21;72.61;98981.84;5118400;27;2342;-81
2023/01/01 00:25:27;;;;;;;;;;;;;;;5.22;72.83;98988.78;5115125;27;2181;-83
2023/01/01 00:27:54;;;;;;;;;;;;;;;5.22;72.92;98992.28;5116845;27;2473;-81
2023/01/01 00:30:21;;;;;;;;;;;;;;;5.29;72.36;99002.88;5111034;27;2242;-83
2023/01/01 00:32:47;;;;;;;;;;;;;;;5.21;72.63;98997.84;5147515;27;2262;-82
2023/01/01 00:35:14;;;;;;;;;;;;;;;5.32;72.43;99004.28;5111652;27;2215;-82
2023/01/01 00:37:40;;;;;;;;;;;;;;;5.34;72.27;98999.53;5116541;27;2751;-81
2023/01/01 00:40:07;;;;;;;;;;;;;;;5.35;72.09;99007.31;5110745;27;2412;-82
2023/01/01 00:42:33;;;;;;;;;;;;;;;5.30;72.44;99015.19;5113613;27;2453;-82
2023/01/01 00:45:00;;;;;;;;;;;;;;;5.41;71.74;99016.28;5111898;27;2167;-82
2023/01/01 00:47:27;;;;;;;;;;;;;;;5.29;72.28;99018.88;5118326;27;2185;-86
2023/01/01 00:49:54;;;;;;;;;;;;;;;5.34;72.29;99013.72;5117815;27;2133;-81
2023/01/01 00:52:20;;;;;;;;;;;;;;;5.32;72.15;99021.13;5116070;27;2169;-83
2023/01/01 00:54:47;;;;;;;;;;;;;;;5.36;72.16;99021.50;5113164;27;2176;-82
2023/01/01 00:57:13;;;;;;;;;;;;;;;5.50;71.78;99019.47;5144749;27;2225;-82
2023/01/01 00:59:40;;;;;;;;;;;;;;;5.31;72.30;99018.69;5112066;27;2386;-82
2023/01/01 01:02:06;;;;;;;;;;;;;;;5.39;72.09;99029.06;5115178;27;2600;-83
2023/01/01 01:04:33;;;;;;;;;;;;;;;5.40;71.95;99028.84;5118872;27;2145;-82
2023/01/01 01:07:00;;;;;;;;;;;;;;;5.43;71.75;99033.72;5113619;27;2200;-82
2023/01/01 01:09:26;;;;;;;;;;;;;;;5.41;71.98;99049.19;5113646;27;2077;-81
2023/01/01 01:11:53;;;;;;;;;;;;;;;5.35;72.06;99049.22;5111374;27;2192;-83
2023/01/01 01:14:20;;;;;;;;;;;;;;;5.39;71.98;99048.56;5111856;27;2247;-82
2023/01/01 01:16:47;;;;;;;;;;;;;;;5.52;71.71;99049.47;5116175;27;2208;-81
2023/01/01 01:19:17;;;;;;;;;;;;;;;5.45;71.57;99047.69;5120712;27;2053;-81
2023/01/01 01:21:45;;;;;;;;;;;;;;;5.41;71.98;99043.84;5107665;27;2491;-82
2023/01/01 01:24:12;;;;;;;;;;;;;;;5.50;71.58;99060.38;5117309;27;2392;-83
2023/01/01 01:26:39;;;;;;;;;;;;;;;5.44;71.65;99058.56;5113479;27;2125;-82
2023/01/01 01:29:05;;;;;;;;;;;;;;;5.38;72.15;99060.31;5112254;27;2120;-81
2023/01/01 01:31:32;;;;;;;;;;;;;;;5.52;71.51;99068.97;5112683;27;2171;-81
2023/01/01 01:33:58;;;;;;;;;;;;;;;5.43;71.67;99064.97;5113599;27;2373;-82
2023/01/01 01:36:25;;;;;;;;;;;;;;;5.49;71.52;99069.41;5142452;27;2150;-82
2023/01/01 01:38:51;;;;;;;;;;;;;;;5.45;71.97;99073.56;5114675;27;2319;-83
2023/01/01 01:41:18;;;;;;;;;;;;;;;5.52;71.67;99065.47;5116425;27;2426;-82
2023/01/01 01:43:45;;;;;;;;;;;;;;;5.50;71.46;99081.75;5115371;27;3904;-84
2023/01/01 01:46:12;;;;;;;;;;;;;;;5.54;71.55;99082.09;5110650;27;3898;-81
2023/01/01 01:48:38;;;;;;;;;;;;;;;5.54;71.42;99077.56;5113397;27;2492;-81
2023/01/01 01:51:05;;;;;;;;;;;;;;;5.56;71.15;99088.84;5114172;27;3965;-81
2023/01/01 01:53:32;;;;;;;;;;;;;;;5.58;71.06;99104.66;5108891;27;4163;-82
2023/01/01 01:55:59;;;;;;;;;;;;;;;5.56;71.21;99104.03;5115640;27;3420;-82
2023/01/01 01:58:26;;;;;;;;;;;;;;;5.65;70.88;99108.88;5113518;27;2326;-81
2023/01/01 02:00:53;;;;;;;;;;;;;;;5.64;70.87;99123.25;5094698;27;3647;-82
2023/01/01 02:03:19;;;;;;;;;;;;;;;5.49;71.66;99106.78;5112973;27;2322;-81
2023/01/01 02:05:46;;;;;;;;;;;;;;;5.56;71.31;99112.91;5109982;27;2225;-81
2023/01/01 02:08:13;;;;;;;;;;;;;;;5.55;71.35;99102.41;5113368;27;2128;-81
2023/01/01 02:10:40;;;;;;;;;;;;;;;5.62;71.17;99098.66;5122838;27;2201;-82
2023/01/01 02:13:06;;;;;;;;;;;;;;;5.69;70.88;99095.91;5115878;27;2111;-82
2023/01/01 02:15:33;;;;;;;;;;;;;;;5.56;71.41;99101.38;5116917;27;1931;-83
2023/01/01 02:17:59;;;;;;;;;;;;;;;5.55;71.28;99102.41;5114520;27;2516;-82
2023/01/01 02:20:26;;;;;;;;;;;;;;;5.69;71.08;99098.56;5113212;27;2064;-82
2023/01/01 02:22:52;;;;;;;;;;;;;;;5.64;70.99;99093.88;5118074;27;2236;-83
2023/01/01 02:25:19;;;;;;;;;;;;;;;5.58;71.03;99096.63;5115960;27;2582;-81
2023/01/01 02:27:46;;;;;;;;;;;;;;;5.61;71.26;99099.66;5111805;27;2200;-81
2023/01/01 02:30:12;;;;;;;;;;;;;;;5.72;70.62;99105.31;5110537;27;2083;-82
2023/01/01 02:32:39;;;;;;;;;;;;;;;5.74;70.82;99114.75;5110419;27;2241;-82
2023/01/01 02:37:46;;;;;;;;;;;;;;;5.70;71.02;99116.22;5110741;27;2469;-83
2023/01/01 02:40:13;;;;;;;;;;;;;;;5.68;70.80;99118.31;5109597;27;2258;-83
2023/01/01 02:42:39;;;;;;;;;;;;;;;5.73;70.49;99122.97;5114617;27;2074;-82
2023/01/01 02:45:06;;;;;;;;;;;;;;;5.78;70.23;99126.63;5119333;27;2404;-82
2023/01/01 02:47:33;;;;;;;;;;;;;;;5.64;70.91;99131.28;5114974;27;2280;-81
2023/01/01 02:49:59;;;;;;;;;;;;;;;5.74;70.68;99144.13;5109891;27;2205;-82
2023/01/01 02:52:26;;;;;;;;;;;;;;;5.70;70.78;99138.41;5128629;27;2140;-84
2023/01/01 02:54:52;;;;;;;;;;;;;;;5.70;70.97;99141.06;5110910;27;2289;-82
2023/01/01 02:57:19;;;;;;;;;;;;;;;5.70;70.90;99141.06;5117725;27;2383;-83
2023/01/01 03:02:36;;;;;;;;;;;;;;;5.72;70.46;99140.06;5096517;27;2179;-82
2023/01/01 03:05:03;;;;;;;;;;;;;;;5.75;70.50;99144.94;5111139;27;2246;-81
2023/01/01 03:07:30;;;;;;;;;;;;;;;5.78;70.64;99147.19;5115270;27;2074;-83
2023/01/01 03:09:57;;;;;;;;;;;;;;;5.67;71.10;99138.84;5115464;27;2285;-82
2023/01/01 03:12:24;;;;;;;;;;;;;;;5.80;70.45;99145.09;5114365;27;2140;-80
2023/01/01 03:14:51;;;;;;;;;;;;;;;5.63;71.02;99150.22;5110781;27;2245;-82
2023/01/01 03:17:18;;;;;;;;;;;;;;;5.74;70.84;99154.00;5117257;27;2238;-83
2023/01/01 03:19:44;;;;;;;;;;;;;;;5.77;70.51;99149.03;5110588;27;2216;-82
2023/01/01 03:22:11;;;;;;;;;;;;;;;5.83;70.39;99147.34;5110159;27;2242;-83
2023/01/01 03:24:37;;;;;;;;;;;;;;;5.75;70.82;99150.28;5109670;27;2141;-82
2023/01/01 03:27:04;;;;;;;;;;;;;;;5.80;70.45;99155.78;5110616;27;2250;-83
2023/01/01 03:29:30;;;;;;;;;;;;;;;5.71;70.77;99176.63;5113006;27;2163;-82
2023/01/01 03:31:57;;;;;;;;;;;;;;;5.92;69.95;99176.19;5110311;27;2268;-83
2023/01/01 03:34:23;;;;;;;;;;;;;;;5.79;70.58;99191.53;5112329;27;2319;-82
2023/01/01 03:36:51;;;;;;;;;;;;;;;5.72;70.81;99188.94;5116757;27;2226;-82
2023/01/01 03:39:17;;;;;;;;;;;;;;;5.87;70.09;99194.75;5110059;27;2251;-83
2023/01/01 03:41:44;;;;;;;;;;;;;;;5.82;70.42;99194.59;5121764;27;2276;-82
2023/01/01 03:44:11;;;;;;;;;;;;;;;5.91;70.08;99195.94;5113675;27;2215;-82
2023/01/01 03:46:37;;;;;;;;;;;;;;;5.89;70.24;99197.22;5113080;27;2121;-80
2023/01/01 03:49:04;;;;;;;;;;;;;;;5.89;69.92;99197.22;5113977;27;2241;-81
2023/01/01 03:51:31;;;;;;;;;;;;;;;5.89;70.18;99200.69;5124364;27;2094;-79
2023/01/01 03:53:57;;;;;;;;;;;;;;;5.92;69.72;99205.59;5116096;27;2220;-80
2023/01/01 03:56:24;;;;;;;;;;;;;;;5.90;70.19;99209.53;5115832;27;2177;-82
2023/01/01 03:58:50;;;;;;;;;;;;;;;5.95;69.88;99212.38;5117017;27;2271;-82
2023/01/01 04:01:17;;;;;;;;;;;;;;;5.91;69.96;99213.81;5109707;27;2349;-82
2023/01/01 04:03:44;;;;;;;;;;;;;;;5.79;70.36;99218.25;5114868;27;2158;-82
2023/01/01 04:06:11;;;;;;;;;;;;;;;5.90;69.87;99225.56;5112468;27;2355;-83
2023/01/01 04:08:37;;;;;;;;;;;;;;;5.80;70.63;99233.28;5131750;27;2113;-81
2023/01/01 04:12:00;;;;;;;;;;;;;;;5.82;70.48;99242.69;5113285;27;2208;-81
2023/01/01 04:13:52;;;;;;;;;;;;;;;5.93;70.16;99243.84;5114514;27;3494;-82
2023/01/01 04:16:19;;;;;;;;;;;;;;;5.89;70.07;99251.47;5119101;27;2342;-82
2023/01/01 04:18:46;;;;;;;;;;;;;;;6.00;69.81;99251.78;5116336;27;2160;-82
2023/01/01 04:21:12;;;;;;;;;;;;;;;5.90;70.00;99252.28;5111364;27;2148;-82
2023/01/01 04:23:39;;;;;;;;;;;;;;;5.96;69.79;99254.09;5112201;27;3252;-82
2023/01/01 04:26:05;;;;;;;;;;;;;;;5.80;70.38;99250.13;5116383;27;3654;-82
2023/01/01 04:28:32;;;;;;;;;;;;;;;5.94;69.81;99260.69;5113023;27;2151;-81
2023/01/01 04:30:58;;;;;;;;;;;;;;;5.94;69.93;99258.84;5118453;27;2288;-82
2023/01/01 04:33:25;;;;;;;;;;;;;;;5.96;69.66;99266.66;5114165;27;2175;-81
2023/01/01 04:35:52;;;;;;;;;;;;;;;5.96;70.00;99266.66;5115036;27;2079;-81
2023/01/01 04:38:18;;;;;;;;;;;;;;;6.03;69.86;99265.56;5117549;27;2077;-83
2023/01/01 04:40:44;;;;;;;;;;;;;;;6.00;69.91;99274.03;5115273;27;1980;-83
2023/01/01 04:43:11;;;;;;;;;;;;;;;5.95;69.95;99271.19;5114860;27;3665;-84
2023/01/01 04:45:38;;;;;;;;;;;;;;;6.01;69.64;99270.28;5122149;27;2288;-82
2023/01/01 04:48:04;;;;;;;;;;;;;;;6.01;69.57;99270.28;5112738;27;2141;-82
2023/01/01 04:50:31;;;;;;;;;;;;;;;5.92;70.05;99263.56;5110932;27;2555;-83
2023/01/01 04:52:57;;;;;;;;;;;;;;;6.00;69.79;99260.66;5113061;27;2156;-79
2023/01/01 04:55:24;;;;;;;;;;;;;;;6.03;69.69;99268.22;5113973;27;2253;-83
2023/01/01 04:57:50;;;;;;;;;;;;;;;6.01;69.73;99275.63;5117963;27;2210;-82
2023/01/01 05:00:17;;;;;;;;;;;;;;;5.94;69.86;99280.22;5114872;27;2211;-84
2023/01/01 05:02:44;;;;;;;;;;;;;;;5.89;70.46;99285.41;5120371;27;2257;-81
2023/01/01 05:05:11;;;;;;;;;;;;;;;6.07;69.71;99298.81;5114871;27;2445;-83
2023/01/01 05:07:37;;;;;;;;;;;;;;;6.01;69.58;99305.03;5114116;27;2193;-83
2023/01/01 05:10:04;;;;;;;;;;;;;;;6.06;69.77;99309.72;5114988;27;2204;-84
2023/01/01 05:12:30;;;;;;;;;;;;;;;6.10;69.34;99308.25;5111654;27;2190;-82
2023/01/01 05:14:57;;;;;;;;;;;;;;;6.04;69.52;99309.94;5113687;27;2203;-82
2023/01/01 05:17:23;;;;;;;;;;;;;;;5.99;69.65;99301.75;5132478;27;2235;-82
2023/01/01 05:19:50;;;;;;;;;;;;;;;5.97;70.00;99313.72;5114992;27;2133;-83
2023/01/01 05:22:16;;;;;;;;;;;;;;;6.03;69.79;99311.00;5114340;27;2188;-84
2023/01/01 05:24:43;;;;;;;;;;;;;;;6.02;69.65;99300.50;5112340;27;2251;-85
2023/01/01 05:27:10;;;;;;;;;;;;;;;6.15;69.19;99303.06;5114545;27;2262;-83
2023/01/01 05:29:36;;;;;;;;;;;;;;;6.01;69.56;99307.72;5124699;27;2225;-83
2023/01/01 05:32:03;;;;;;;;;;;;;;;6.10;69.42;99303.72;5111721;27;2212;-84
2023/01/01 05:34:30;;;;;;;;;;;;;;;6.03;69.68;99291.44;5113481;27;2450;-83
2023/01/01 05:36:56;;;;;;;;;;;;;;;6.12;69.27;99295.50;5113218;27;2239;-84
2023/01/01 05:39:23;;;;;;;;;;;;;;;6.15;69.35;99305.75;5113081;27;2429;-81
2023/01/01 05:41:50;;;;;;;;;;;;;;;6.18;69.20;99304.44;5114693;27;2224;-83
2023/01/01 05:44:18;;;;;;;;;;;;;;;6.08;69.46;99313.00;5116838;27;2167;-83
2023/01/01 05:46:44;;;;;;;;;;;;;;;6.05;69.52;99316.91;5114964;27;2061;-82
2023/01/01 05:49:11;;;;;;;;;;;;;;;6.11;69.51;99321.38;5112237;27;2329;-82
2023/01/01 05:51:38;;;;;;;;;;;;;;;6.11;69.39;99337.41;5121876;27;2209;-83
2023/01/01 05:54:04;;;;;;;;;;;;;;;6.21;69.21;99339.63;5113924;27;2277;-83
2023/01/01 05:56:31;;;;;;;;;;;;;;;6.16;69.20;99338.63;5116365;27;2203;-83
2023/01/01 05:58:58;;;;;;;;;;;;;;;6.20;69.47;99355.84;5117552;27;2485;-84
2023/01/01 06:01:24;;;;;;;;;;;;;;;6.29;68.73;99354.53;5123984;27;2212;-84
2023/01/01 06:03:51;;;;;;;;;;;;;;;6.25;68.80;99358.69;5119840;27;2155;-83
2023/01/01 06:06:18;;;;;;;;;;;;;;;6.19;69.25;99372.94;5113022;27;2147;-83
2023/01/01 06:08:44;;;;;;;;;;;;;;;6.16;69.09;99384.09;5120088;27;2583;-83
2023/01/01 06:11:11;;;;;;;;;;;;;;;6.20;69.00;99385.28;5109927;27;2731;-84
2023/01/01 06:13:38;;;;;;;;;;;;;;;6.25;68.77;99391.59;5116534;27;2343;-83
2023/01/01 06:16:04;;;;;;;;;;;;;;;6.19;69.02;99386.31;5122617;27;2224;-83
2023/01/01 06:18:31;;;;;;;;;;;;;;;6.22;68.86;99389.38;5120921;27;2422;-84
2023/01/01 06:20:57;;;;;;;;;;;;;;;6.19;69.05;99400.50;5113965;27;2307;-82
2023/01/01 06:23:24;;;;;;;;;;;;;;;6.33;68.61;99396.66;5114933;27;2215;-85
2023/01/01 06:25:51;;;;;;;;;;;;;;;6.24;68.98;99394.50;5112439;27;2240;-84
2023/01/01 06:28:18;;;;;;;;;;;;;;;6.19;68.91;99397.81;5111844;27;2175;-84
2023/01/01 06:30:45;;;;;;;;;;;;;;;6.28;68.58;99396.50;5112760;27;2562;-84
2023/01/01 06:33:12;;;;;;;;;;;;;;;6.27;68.91;99404.75;5116001;27;2125;-84
2023/01/01 06:35:38;;;;;;;;;;;;;;;6.26;68.61;99406.59;5123240;27;2170;-84
2023/01/01 06:38:05;;;;;;;;;;;;;;;6.30;68.89;99413.16;5114639;27;2340;-83
2023/01/01 06:40:31;;;;;;;;;;;;;;;6.36;68.36;99420.31;5117802;27;2365;-84
2023/01/01 06:42:58;;;;;;;;;;;;;;;6.33;68.71;99423.41;5125232;27;2256;-84
2023/01/01 06:45:24;;;;;;;;;;;;;;;6.21;69.10;99425.16;5116521;27;3908;-84
2023/01/01 06:47:51;;;;;;;;;;;;;;;6.21;68.95;99422.50;5129619;27;2205;-83
2023/01/01 06:50:17;;;;;;;;;;;;;;;6.29;68.60;99430.22;5121357;27;2229;-83
2023/01/01 06:52:44;;;;;;;;;;;;;;;6.21;69.22;99425.16;5122753;27;2228;-84
2023/01/01 06:55:11;;;;;;;;;;;;;;;6.21;68.99;99432.38;5116699;27;4685;-83
2023/01/01 06:57:37;;;;;;;;;;;;;;;6.30;68.56;99439.09;5115932;27;3610;-83
2023/01/01 07:00:04;;;;;;;;;;;;;;;6.22;68.95;99445.50;5126959;27;2929;-84
2023/01/01 07:02:30;;;;;;;;;;;;;;;6.23;69.10;99435.63;5123457;27;2386;-84
2023/01/01 07:04:57;;;;;;;;;;;;;;;6.26;68.70;99452.06;5119533;27;2727;-84
2023/01/01 07:07:23;;;;;;;;;;;;;;;6.35;68.65;99455.28;5124243;27;2501;-84
2023/01/01 07:09:50;;;;;;;;;;;;;;;6.20;68.94;99468.16;5122633;27;2228;-83
2023/01/01 07:12:17;;;;;;;;;;;;;;;6.32;68.52;99474.44;5125964;27;2826;-84
2023/01/01 07:14:43;;;;;;;;;;;;;;;6.36;68.35;99476.47;5118395;27;2228;-83
2023/01/01 07:17:10;;;;;;;;;;;;;;;6.30;68.56;99477.34;5125190;27;2736;-83
2023/01/01 07:19:36;;;;;;;;;;;;;;;6.30;68.55;99477.34;5117450;27;2249;-84
2023/01/01 07:22:03;;;;;;;;;;;;;;;6.28;68.77;99468.69;5123999;27;2204;-84
2023/01/01 07:24:29;;;;;;;;;;;;;;;6.24;68.87;99478.22;5126331;27;2594;-84
2023/01/01 07:26:56;;;;;;;;;;;;;;;6.26;68.69;99475.31;5124467;27;2307;-84
2023/01/01 07:29:23;;;;;;;;;;;;;;;6.19;69.04;99483.38;5127891;27;2224;-84
2023/01/01 07:31:50;;;;;;;;;;;;;;;6.20;69.11;99485.00;5125734;27;2282;-84
2023/01/01 07:34:17;;;;;;;;;;;;;;;6.33;68.68;99484.91;5115769;27;2207;-83
2023/01/01 07:36:44;;;;;;;;;;;;;;;6.22;68.92;99484.81;5112109;27;2202;-85
2023/01/01 07:39:11;;;;;;;;;;;;;;;6.20;69.18;99486.88;5112017;27;2227;-83
2023/01/01 07:41:37;;;;;;;;;;;;;;;6.16;69.13;99501.72;5116525;27;2213;-84
2023/01/01 07:44:04;;;;;;;;;;;;;;;6.18;68.87;99511.16;5114525;27;2126;-84
2023/01/01 07:46:30;;;;;;;;;;;;;;;6.15;69.09;99514.28;5121975;27;2173;-84
2023/01/01 07:48:57;;;;;;;;;;;;;;;6.12;69.42;99517.38;5116378;27;2216;-84
2023/01/01 07:51:23;;;;;;;;;;;;;;;6.12;69.46;99512.84;5113934;27;2202;-84
2023/01/01 07:53:50;;;;;;;;;;;;;;;6.15;69.12;99514.28;5116608;27;2648;-84
2023/01/01 07:56:17;;;;;;;;;;;;;;;6.04;69.36;99507.75;5115985;27;2132;-84
2023/01/01 07:58:44;;;;;;;;;;;;;;;6.06;69.61;99513.72;5118041;27;2427;-84
2023/01/01 08:01:10;;;;;;;;;;;;;;;6.12;69.34;99517.38;5117669;27;2587;-83
2023/01/01 08:03:37;;;;;;;;;;;;;;;6.10;69.38;99525.59;5116208;27;2202;-84
2023/01/01 08:06:03;;;;;;;;;;;;;;;6.10;69.45;99536.28;5114328;27;2268;-85
2023/01/01 08:08:30;;;;;;;;;;;;;;;6.15;69.12;99530.31;5115977;27;2532;-83
2023/01/01 08:10:57;;;;;;;;;;;;;;;6.00;69.46;99532.44;5112812;27;2126;-82
2023/01/01 08:13:23;;;;;;;;;;;;;;;6.07;69.15;99538.59;5114731;27;2169;-84
2023/01/01 08:15:50;;;;;;;;;;;;;;;6.07;69.39;99547.41;5116927;27;2152;-84
2023/01/01 08:18:17;;;;;;;;;;;;;;;5.98;69.71;99550.56;5116392;27;2182;-84
2023/01/01 08:20:44;;;;;;;;;;;;;;;6.00;69.70;99540.47;5114226;27;2167;-84
2023/01/01 08:23:10;;;;;;;;;;;;;;;5.99;69.66;99536.16;5118047;27;2129;-84
2023/01/01 08:25:37;;;;;;;;;;;;;;;5.99;69.68;99536.16;5114432;27;2293;-83
2023/01/01 08:28:04;;;;;;;;;;;;;;;6.06;69.28;99543.13;5117189;27;2448;-83
2023/01/01 08:30:31;;;;;;;;;;;;;;;5.94;69.54;99536.78;5115582;27;2316;-86
2023/01/01 08:32:58;;;;;;;;;;;;;;;5.95;69.94;99538.44;5112274;27;2201;-84
2023/01/01 08:35:25;;;;;;;;;;;;;;;5.89;69.94;99548.09;5113905;27;2180;-84
2023/01/01 08:37:51;;;;;;;;;;;;;;;5.80;70.20;99554.72;5112944;27;2155;-84
2023/01/01 08:40:18;;;;;;;;;;;;;;;5.94;69.76;99560.84;5116602;27;2256;-83
2023/01/01 08:42:44;;;;;;;;;;;;;;;6.02;69.47;99565.94;5116512;27;2213;-83
2023/01/01 08:45:11;;;;;;;;;;;;;;;5.89;70.18;99566.00;5128665;27;2147;-84
2023/01/01 08:47:37;;;;;;;;;;;;;;;5.92;69.84;99576.25;5117163;27;2148;-84
2023/01/01 08:50:04;;;;;;;;;;;;;;;5.97;69.41;99584.50;5116895;27;2445;-84
2023/01/01 08:52:31;;;;;;;;;;;;;;;6.00;69.36;99591.25;5111100;27;2168;-83
2023/01/01 08:54:57;;;;;;;;;;;;;;;5.89;69.63;99600.75;5112179;27;2212;-84
2023/01/01 08:57:24;;;;;;;;;;;;;;;5.95;69.45;99593.75;5117890;27;2196;-83
2023/01/01 08:59:50;;;;;;;;;;;;;;;5.83;70.02;99590.91;5116631;27;2140;-83
2023/01/01 09:02:17;;;;;;;;;;;;;;;5.85;69.96;99597.69;5117933;27;2058;-84
2023/01/01 09:04:43;;;;;;;;;;;;;;;5.87;70.00;99592.09;5117253;27;2118;-86
2023/01/01 09:07:10;;;;;;;;;;;;;;;5.99;69.68;99598.44;5121111;27;2156;-84
2023/01/01 09:09:37;;;;;;;;;;;;;;;5.88;69.91;99599.06;5121558;27;2308;-84
2023/01/01 09:12:05;;;;;;;;;;;;;;;5.92;69.67;99611.00;5121567;27;2299;-83
2023/01/01 09:14:31;;;;;;;;;;;;;;;5.89;69.79;99609.56;5113856;27;4685;-84
2023/01/01 09:16:58;;;;;;;;;;;;;;;5.96;69.54;99609.56;5112955;27;3684;-84
2023/01/01 09:19:25;;;;;;;;;;;;;;;5.93;69.64;99620.69;5114369;27;2405;-83
2023/01/01 09:21:51;;;;;;;;;;;;;;;5.92;69.77;99622.50;5119651;27;3585;-83
2023/01/01 09:24:18;;;;;;;;;;;;;;;5.99;69.44;99630.53;5117912;27;4503;-84
2023/01/01 09:26:44;;;;;;;;;;;;;;;5.95;69.72;99634.66;5121554;27;2259;-82
2023/01/01 09:29:11;;;;;;;;;;;;;;;5.85;69.81;99639.59;5117418;27;2261;-83
2023/01/01 09:31:38;;;;;;;;;;;;;;;5.86;69.82;99638.56;5111129;27;2467;-82
2023/01/01 09:34:04;;;;;;;;;;;;;;;5.96;69.54;99648.84;5115799;27;2225;-83
2023/01/01 09:36:31;;;;;;;;;;;;;;;5.96;69.35;99646.16;5126680;27;2084;-82
2023/01/01 09:38:57;;;;;;;;;;;;;;;5.98;69.41;99638.78;5110966;27;2208;-84
2023/01/01 09:41:24;;;;;;;;;;;;;;;5.95;69.32;99645.34;5111677;27;2778;-83
2023/01/01 09:43:50;;;;;;;;;;;;;;;5.92;69.66;99648.41;5116202;27;3031;-83
2023/01/01 09:46:17;;;;;;;;;;;;;;;5.90;69.76;99647.81;5128078;27;2118;-83
2023/01/01 09:48:44;;;;;;;;;;;;;;;5.96;69.68;99660.34;5125685;27;2056;-82
2023/01/01 09:51:10;;;;;;;;;;;;;;;5.97;69.29;99643.31;5123277;27;2263;-83
2023/01/01 09:53:37;;;;;;;;;;;;;;;5.99;69.28;99651.91;5126045;27;2137;-84
2023/01/01 09:56:04;;;;;;;;;;;;;;;5.98;69.36;99646.78;5110913;27;2364;-85
2023/01/01 09:58:31;;;;;;;;;;;;;;;6.01;69.06;99644.50;5117616;27;2148;-85
2023/01/01 10:00:58;;;;;;;;;;;;;;;5.90;69.79;99653.16;5113721;27;2134;-85
2023/01/01 10:03:24;;;;;;;;;;;;;;;5.95;69.42;99653.38;5116473;27;2252;-86
2023/01/01 10:05:51;;;;;;;;;;;;;;;6.03;69.31;99653.16;5111724;27;2171;-86
2023/01/01 10:08:17;;;;;;;;;;;;;;;6.11;68.77;99649.38;5124858;27;2071;-86
2023/01/01 10:10:44;;;;;;;;;;;;;;;5.99;69.18;99662.59;5116205;27;2109;-86
2023/01/01 10:13:10;;;;;;;;;;;;;;;5.92;69.63;99662.59;5114177;27;2168;-87
2023/01/01 10:15:37;;;;;;;;;;;;;;;6.04;69.17;99662.78;5116784;27;2418;-87
2023/01/01 10:18:04;;;;;;;;;;;;;;;6.03;69.17;99671.00;5117247;27;2558;-86
2023/01/01 10:20:30;;;;;;;;;;;;;;;6.03;69.28;99673.69;5112734;27;2071;-84
2023/01/01 10:22:57;;;;;;;;;;;;;;;6.00;69.01;99674.94;5113168;27;2158;-86
2023/01/01 10:25:23;;;;;;;;;;;;;;;6.03;69.05;99676.34;5123637;27;2093;-84
2023/01/01 10:27:50;;;;;;;;;;;;;;;6.02;69.07;99675.53;5126843;27;2155;-86
2023/01/01 10:30:17;;;;;;;;;;;;;;;6.08;68.79;99669.34;5118393;27;2092;-86
2023/01/01 10:32:43;;;;;;;;;;;;;;;6.03;69.06;99679.03;5111002;27;2225;-86
2023/01/01 10:35:10;;;;;;;;;;;;;;;5.94;69.48;99674.94;5120206;27;2300;-86
2023/01/01 10:37:36;;;;;;;;;;;;;;;5.96;69.31;99679.06;5112576;27;2592;-86
2023/01/01 10:40:03;;;;;;;;;;;;;;;5.91;69.33;99677.00;5111448;27;2610;-86
2023/01/01 10:42:30;;;;;;;;;;;;;;;5.99;69.35;99675.16;5114330;27;2470;-86
2023/01/01 10:44:58;;;;;;;;;;;;;;;5.97;69.45;99670.03;5120551;27;2182;-86
2023/01/01 10:47:25;;;;;;;;;;;;;;;6.00;69.11;99677.63;5123221;27;2140;-86
2023/01/01 10:49:52;;;;;;;;;;;;;;;6.04;69.08;99678.03;5118799;27;2190;-85
2023/01/01 10:52:18;;;;;;;;;;;;;;;5.98;69.10;99681.53;5123116;27;2323;-85
2023/01/01 10:54:45;;;;;;;;;;;;;;;6.16;68.81;99686.19;5120665;27;2188;-84
2023/01/01 10:57:12;;;;;;;;;;;;;;;6.16;68.62;99672.84;5113225;27;2245;-85
2023/01/01 10:59:38;;;;;;;;;;;;;;;6.05;68.85;99679.66;5110472;27;2192;-85
2023/01/01 11:02:05;;;;;;;;;;;;;;;5.92;69.28;99686.66;5116795;27;2719;-85
2023/01/01 11:04:31;;;;;;;;;;;;;;;5.98;69.41;99679.69;5112983;27;2111;-85
2023/01/01 11:07:02;;;;;;;;;;;;;;;5.92;69.52;99683.97;5116198;27;2172;-86
2023/01/01 11:09:30;;;;;;;;;;;;;;;6.00;69.19;99688.31;5106088;27;2216;-85
2023/01/01 11:11:57;;;;;;;;;;;;;;;6.04;69.21;99688.72;5110184;27;2234;-85
2023/01/01 11:14:23;;;;;;;;;;;;;;;6.07;69.24;99688.28;5129434;27;2322;-85
2023/01/01 11:16:50;;;;;;;;;;;;;;;5.96;69.57;99695.09;5112084;27;2228;-85
2023/01/01 11:19:16;;;;;;;;;;;;;;;6.10;68.87;99699.38;5108591;27;2355;-83
2023/01/01 11:21:43;;;;;;;;;;;;;;;6.13;68.63;99693.59;5113534;27;2390;-83
2023/01/01 11:24:09;;;;;;;;;;;;;;;6.10;69.08;99698.56;5110201;27;2268;-84
2023/01/01 11:26:36;;;;;;;;;;;;;;;6.00;69.19;99695.50;5110887;27;2280;-83
2023/01/01 11:29:02;;;;;;;;;;;;;;;6.03;69.30;99692.41;5113899;27;4127;-84
2023/01/01 11:31:29;;;;;;;;;;;;;;;6.08;68.90;99696.09;5112593;27;4035;-83
2023/01/01 11:33:56;;;;;;;;;;;;;;;5.94;69.44;99694.47;5108891;27;2305;-83
2023/01/01 11:36:22;;;;;;;;;;;;;;;5.99;69.53;99691.19;5111769;27;2266;-84
2023/01/01 11:38:49;;;;;;;;;;;;;;;6.19;68.69;99707.16;5111657;27;2299;-84
2023/01/01 11:41:16;;;;;;;;;;;;;;;6.08;69.19;99703.28;5145958;27;2275;-83
2023/01/01 11:43:42;;;;;;;;;;;;;;;6.16;68.96;99708.41;5106837;27;2172;-83
2023/01/01 11:46:09;;;;;;;;;;;;;;;6.16;68.97;99707.59;5113876;27;3913;-85
2023/01/01 11:48:36;;;;;;;;;;;;;;;6.13;69.07;99698.94;5106975;27;2533;-85
2023/01/01 11:51:02;;;;;;;;;;;;;;;6.16;68.87;99708.41;5106977;27;2228;-85
2023/01/01 11:53:29;;;;;;;;;;;;;;;6.06;68.97;99702.66;5123230;27;2313;-84
2023/01/01 11:55:55;;;;;;;;;;;;;;;6.06;69.25;99703.50;5140592;27;4687;-84
2023/01/01 11:58:22;;;;;;;;;;;;;;;6.14;69.09;99708.59;5125792;27;2243;-84
2023/01/01 12:00:49;;;;;;;;;;;;;;;6.07;69.27;99710.50;5114791;27;3604;-84
2023/01/01 12:03:15;;;;;;;;;;;;;;;6.15;69.02;99709.44;5105654;27;2528;-85
2023/01/01 12:05:45;;;;;;;;;;;;;;;6.19;68.93;99723.22;5109383;27;2284;-84
2023/01/01 12:08:12;;;;;;;;;;;;;;;6.17;68.88;99725.25;5114183;27;2208;-83
2023/01/01 12:10:38;;;;;;;;;;;;;;;6.20;68.45;99727.50;5123494;27;2121;-85
2023/01/01 12:13:05;;;;;;;;;;;;;;;6.13;69.02;99730.22;5118872;27;3547;-84
2023/01/01 12:15:32;;;;;;;;;;;;;;;6.13;69.03;99731.03;5115794;27;2063;-84
2023/01/01 12:17:58;;;;;;;;;;;;;;;6.13;68.80;99739.06;5114359;27;2168;-84
2023/01/01 12:20:25;;;;;;;;;;;;;;;6.11;68.95;99748.31;5118707;27;2141;-85
2023/01/01 12:22:51;;;;;;;;;;;;;;;6.24;68.65;99750.97;5116268;27;2159;-84
2023/01/01 12:25:18;;;;;;;;;;;;;;;6.24;68.79;99747.47;5155110;27;2432;-84
2023/01/01 12:27:45;;;;;;;;;;;;;;;6.24;68.86;99758.97;5107896;27;2108;-83
2023/01/01 12:30:11;;;;;;;;;;;;;;;6.28;68.76;99760.19;5126485;27;1940;-85
2023/01/01 12:32:39;;;;;;;;;;;;;;;6.26;68.77;99762.25;5125319;27;2144;-85
2023/01/01 12:35:05;;;;;;;;;;;;;;;6.22;68.51;99763.72;5114917;27;2302;-84
2023/01/01 12:37:32;;;;;;;;;;;;;;;6.18;68.85;99764.31;5118175;27;2116;-84
2023/01/01 12:39:58;;;;;;;;;;;;;;;6.18;68.64;99770.53;5114757;27;2121;-84
2023/01/01 12:42:25;;;;;;;;;;;;;;;6.18;68.84;99770.53;5114513;27;2204;-83
2023/01/01 12:44:51;;;;;;;;;;;;;;;6.20;69.10;99784.47;5118980;27;2211;-83
2023/01/01 12:47:18;;;;;;;;;;;;;;;6.27;68.78;99777.28;5114708;27;2265;-83
2023/01/01 12:49:46;;;;;;;;;;;;;;;6.14;69.04;99786.13;5115518;27;2200;-84
2023/01/01 12:52:13;;;;;;;;;;;;;;;6.24;68.89;99787.59;5117512;27;2165;-84
2023/01/01 12:54:40;;;;;;;;;;;;;;;6.30;68.55;99786.75;5121285;27;2151;-84
2023/01/01 12:57:06;;;;;;;;;;;;;;;6.08;69.38;99792.31;5151695;27;2130;-84
2023/01/01 12:59:33;;;;;;;;;;;;;;;6.23;68.86;99785.91;5126838;27;2246;-84
2023/01/01 13:01:59;;;;;;;;;;;;;;;6.25;68.71;99792.69;5121051;27;1894;-84
2023/01/01 13:04:26;;;;;;;;;;;;;;;6.39;68.24;99800.72;5129488;27;1848;-84
2023/01/01 13:06:54;;;;;;;;;;;;;;;6.39;68.44;99798.03;5129857;27;1186;-84
2023/01/01 13:09:21;;;;;;;;;;;;;;;6.31;68.49;99807.91;5122721;27;1625;-84